createdAt,value
2022-11-02T00:02:16.491Z,98.31
2022-11-02T00:04:43.174Z,98.38
2022-11-02T00:07:09.840Z,98.31
2022-11-02T00:09:36.494Z,98.21
2022-11-02T00:12:03.070Z,98.52
2022-11-02T00:14:29.694Z,98.67
2022-11-02T00:16:56.279Z,98.43
2022-11-02T00:19:22.826Z,98.54
2022-11-02T00:21:49.483Z,98.55
2022-11-02T00:24:16.084Z,98.75
2022-11-02T00:26:42.582Z,98.67
2022-11-02T00:29:09.625Z,98.72
2022-11-02T00:31:36.109Z,98.55
2022-11-02T00:34:02.606Z,98.68
2022-11-02T00:36:29.172Z,98.69
2022-11-02T00:38:55.658Z,98.85
2022-11-02T00:41:22.308Z,98.85
2022-11-02T00:43:48.894Z,99.04
2022-11-02T00:46:15.376Z,98.91
2022-11-02T00:48:41.976Z,98.93
2022-11-02T00:51:09.361Z,98.87
2022-11-02T00:53:35.945Z,98.86
2022-11-02T00:56:02.436Z,98.94
2022-11-02T00:58:29.080Z,98.90
2022-11-02T01:00:56.634Z,98.89
2022-11-02T01:03:23.404Z,99.06
2022-11-02T01:05:50.082Z,98.82
2022-11-02T01:08:16.721Z,99.02
2022-11-02T01:10:47.168Z,99.03
2022-11-02T01:13:16.293Z,98.79
2022-11-02T01:15:43.228Z,98.84
2022-11-02T01:18:09.706Z,98.79
2022-11-02T01:20:36.281Z,98.87
2022-11-02T01:23:02.752Z,98.62
2022-11-02T01:25:29.250Z,98.75
2022-11-02T01:27:55.826Z,98.63
2022-11-02T01:30:22.457Z,98.75
2022-11-02T01:32:49.638Z,98.66
2022-11-02T01:35:16.892Z,98.74
2022-11-02T01:37:43.526Z,98.70
2022-11-02T01:40:10.572Z,98.69
2022-11-02T01:42:37.226Z,98.69
2022-11-02T01:45:04.241Z,98.51
2022-11-02T01:47:38.883Z,98.71
2022-11-02T01:50:10.437Z,98.79
2022-11-02T01:52:38.030Z,98.66
2022-11-02T01:55:16.656Z,98.70
2022-11-02T01:57:48.350Z,98.85
2022-11-02T02:00:17.103Z,98.72
2022-11-02T02:03:04.276Z,98.51
2022-11-02T02:05:33.834Z,98.71
2022-11-02T02:08:02.780Z,98.65
2022-11-02T02:10:31.326Z,98.81
2022-11-02T02:12:58.107Z,98.48
2022-11-02T02:15:28.049Z,98.57
2022-11-02T02:18:08.581Z,98.77
2022-11-02T02:20:40.031Z,98.74
2022-11-02T02:23:11.733Z,98.87
2022-11-02T02:25:41.410Z,98.78
2022-11-02T02:28:11.114Z,98.87
2022-11-02T02:30:41.235Z,98.82
2022-11-02T02:33:11.547Z,98.92
2022-11-02T02:35:51.212Z,99.05
2022-11-02T02:38:24.148Z,98.72
2022-11-02T02:40:55.869Z,98.72
2022-11-02T02:43:41.015Z,99.28
2022-11-02T02:46:15.782Z,98.98
2022-11-02T02:48:45.224Z,99.08
2022-11-02T02:51:14.712Z,99.13
2022-11-02T02:53:44.174Z,99.06
2022-11-02T02:56:12.067Z,99.50
2022-11-02T02:58:43.511Z,99.34
2022-11-02T03:01:12.717Z,99.56
2022-11-02T03:03:40.820Z,99.67
2022-11-02T03:06:15.260Z,99.82
2022-11-02T03:08:48.850Z,99.79
2022-11-02T03:11:16.832Z,99.71
2022-11-02T03:14:06.450Z,100.00
2022-11-02T03:16:34.496Z,100.00
2022-11-02T03:19:16.973Z,100.00
2022-11-02T03:21:45.329Z,100.00
2022-11-02T03:24:33.971Z,100.00
2022-11-02T03:27:16.416Z,100.00
2022-11-02T03:29:54.207Z,100.00
2022-11-02T03:32:26.777Z,100.00
2022-11-02T03:34:56.190Z,100.00
2022-11-02T03:37:31.212Z,100.00
2022-11-02T03:40:09.265Z,100.00
2022-11-02T03:42:36.688Z,100.00
2022-11-02T03:45:10.107Z,100.00
2022-11-02T03:47:37.672Z,100.00
2022-11-02T03:50:09.360Z,100.00
2022-11-02T03:52:39.967Z,100.00
2022-11-02T03:55:07.778Z,100.00
2022-11-02T03:57:40.695Z,100.00
2022-11-02T04:00:12.275Z,100.00
2022-11-02T04:02:49.576Z,100.00
2022-11-02T04:05:18.093Z,100.00
2022-11-02T04:08:05.501Z,100.00
2022-11-02T04:10:32.693Z,100.00
2022-11-02T04:13:18.345Z,100.00
2022-11-02T04:15:45.328Z,100.00
2022-11-02T04:18:31.902Z,100.00
2022-11-02T04:20:59.042Z,100.00
2022-11-02T04:23:44.334Z,100.00
2022-11-02T04:26:10.896Z,100.00
2022-11-02T04:28:42.330Z,100.00
2022-11-02T04:31:08.967Z,100.00
2022-11-02T04:33:38.426Z,100.00
2022-11-02T04:36:10.348Z,100.00
2022-11-02T04:38:41.939Z,100.00
2022-11-02T04:41:44.375Z,100.00
2022-11-02T04:44:31.294Z,100.00
2022-11-02T04:47:09.150Z,100.00
2022-11-02T04:49:36.100Z,100.00
2022-11-02T04:52:06.069Z,100.00
2022-11-02T04:54:35.105Z,100.00
2022-11-02T04:57:03.887Z,100.00
2022-11-02T04:59:31.632Z,100.00
2022-11-02T05:01:58.714Z,100.00
2022-11-02T05:04:26.269Z,100.00
2022-11-02T05:06:53.820Z,100.00
2022-11-02T05:09:23.735Z,100.00
2022-11-02T05:11:51.561Z,100.00
2022-11-02T05:14:18.143Z,100.00
2022-11-02T05:16:45.116Z,100.00
2022-11-02T05:19:13.256Z,100.00
2022-11-02T05:21:40.856Z,100.00
2022-11-02T05:24:07.792Z,100.00
2022-11-02T05:26:34.911Z,100.00
2022-11-02T05:29:01.944Z,100.00
2022-11-02T05:31:29.591Z,100.00
2022-11-02T05:33:57.185Z,100.00
2022-11-02T05:36:23.800Z,100.00
2022-11-02T05:38:55.788Z,100.00
2022-11-02T05:41:23.235Z,100.00
2022-11-02T05:43:52.010Z,100.00
2022-11-02T05:46:20.714Z,100.00
2022-11-02T05:48:47.332Z,100.00
2022-11-02T05:51:14.441Z,100.00
2022-11-02T05:53:42.127Z,100.00
2022-11-02T05:56:10.537Z,100.00
2022-11-02T05:58:37.476Z,100.00
2022-11-02T06:01:05.285Z,100.00
2022-11-02T06:03:32.321Z,100.00
2022-11-02T06:06:02.206Z,100.00
2022-11-02T06:08:34.157Z,100.00
2022-11-02T06:11:08.342Z,100.00
2022-11-02T06:13:34.942Z,100.00
2022-11-02T06:16:02.362Z,100.00
2022-11-02T06:18:28.941Z,100.00
2022-11-02T06:20:59.016Z,100.00
2022-11-02T06:23:26.106Z,100.00
2022-11-02T06:25:53.356Z,100.00
2022-11-02T06:28:20.343Z,100.00
2022-11-02T06:30:47.001Z,100.00
2022-11-02T06:33:14.047Z,100.00
2022-11-02T06:35:44.424Z,99.70
2022-11-02T06:38:11.077Z,99.59
2022-11-02T06:40:38.579Z,99.39
2022-11-02T06:43:16.032Z,98.69
2022-11-02T06:45:43.884Z,97.50
2022-11-02T06:48:10.455Z,95.85
2022-11-02T06:50:37.060Z,94.24
2022-11-02T06:53:04.112Z,92.30
2022-11-02T06:55:30.925Z,89.98
2022-11-02T06:57:57.502Z,88.05
2022-11-02T07:00:24.372Z,86.41
2022-11-02T07:03:07.741Z,85.48
2022-11-02T07:05:35.185Z,83.67
2022-11-02T07:08:02.288Z,83.92
2022-11-02T07:10:29.253Z,83.52
2022-11-02T07:12:57.317Z,83.39
2022-11-02T07:15:25.629Z,82.31
2022-11-02T07:17:52.449Z,81.58
2022-11-02T07:20:19.237Z,81.69
2022-11-02T07:22:52.604Z,81.54
2022-11-02T07:25:19.201Z,79.46
2022-11-02T07:27:45.798Z,79.72
2022-11-02T07:30:12.409Z,77.81
2022-11-02T07:32:40.318Z,76.77
2022-11-02T07:35:08.105Z,74.34
2022-11-02T07:37:34.747Z,73.67
2022-11-02T07:40:01.631Z,71.84
2022-11-02T07:42:28.253Z,72.70
2022-11-02T07:44:57.167Z,74.63
2022-11-02T07:47:24.548Z,75.83
2022-11-02T07:49:51.112Z,76.88
2022-11-02T07:52:17.641Z,76.39
2022-11-02T07:54:44.781Z,72.20
2022-11-02T07:57:11.638Z,69.53
2022-11-02T07:59:38.250Z,69.90
2022-11-02T08:02:04.888Z,72.62
2022-11-02T08:04:31.785Z,71.33
2022-11-02T08:06:58.643Z,71.44
2022-11-02T08:09:25.169Z,72.71
2022-11-02T08:11:51.834Z,72.41
2022-11-02T08:14:18.514Z,69.23
2022-11-02T08:16:45.314Z,67.25
2022-11-02T08:19:11.893Z,67.07
2022-11-02T08:21:38.404Z,66.62
2022-11-02T08:24:05.251Z,66.63
2022-11-02T08:26:31.778Z,69.20
2022-11-02T08:28:58.969Z,67.72
2022-11-02T08:31:25.587Z,66.36
2022-11-02T08:33:53.984Z,68.23
2022-11-02T08:36:20.689Z,69.09
2022-11-02T08:38:47.339Z,68.53
2022-11-02T08:41:14.691Z,69.73
2022-11-02T08:43:41.448Z,70.79
2022-11-02T08:46:14.796Z,69.40
2022-11-02T08:48:41.764Z,69.79
2022-11-02T08:51:09.030Z,68.59
2022-11-02T08:53:35.830Z,68.99
2022-11-02T08:56:02.386Z,67.60
2022-11-02T08:58:28.975Z,66.67
2022-11-02T09:00:55.692Z,65.80
2022-11-02T09:03:26.867Z,65.29
2022-11-02T09:05:58.826Z,66.92
2022-11-02T09:08:26.206Z,69.18
2022-11-02T09:10:53.283Z,68.64
2022-11-02T09:13:20.870Z,68.17
2022-11-02T09:15:50.198Z,68.13
2022-11-02T09:18:16.732Z,67.68
2022-11-02T09:20:45.702Z,65.51
2022-11-02T09:23:12.583Z,65.12
2022-11-02T09:25:39.133Z,64.96
2022-11-02T09:28:11.353Z,65.24
2022-11-02T09:30:41.039Z,64.88
2022-11-02T09:33:10.492Z,65.39
2022-11-02T09:35:40.541Z,64.30
2022-11-02T09:38:10.513Z,63.50
2022-11-02T09:40:45.438Z,64.54
2022-11-02T09:43:12.037Z,66.36
2022-11-02T09:45:56.860Z,65.59
2022-11-02T09:48:33.573Z,65.20
2022-11-02T09:51:14.959Z,63.50
2022-11-02T09:53:56.865Z,65.33
2022-11-02T09:56:23.645Z,65.88
2022-11-02T09:58:59.561Z,67.01
2022-11-02T10:01:34.869Z,63.96
2022-11-02T10:04:10.545Z,65.17
2022-11-02T10:06:38.896Z,65.07
2022-11-02T10:09:05.424Z,66.30
2022-11-02T10:11:47.741Z,63.69
2022-11-02T10:14:14.369Z,61.53
2022-11-02T10:17:04.827Z,61.50
2022-11-02T10:19:34.941Z,60.18
2022-11-02T10:22:04.894Z,59.73
2022-11-02T10:24:31.435Z,59.79
2022-11-02T10:27:02.277Z,61.30
2022-11-02T10:29:59.278Z,61.02
2022-11-02T10:32:25.934Z,61.31
2022-11-02T10:35:17.505Z,61.74
2022-11-02T10:37:51.140Z,60.64
2022-11-02T10:40:26.653Z,60.33
2022-11-02T10:42:59.452Z,58.82
2022-11-02T10:45:48.168Z,58.75
2022-11-02T10:48:33.382Z,59.17
2022-11-02T10:53:40.763Z,59.34
2022-11-02T10:56:08.254Z,59.62
2022-11-02T10:58:37.318Z,59.75
2022-11-02T11:01:10.972Z,59.52
2022-11-02T11:03:56.834Z,58.30
2022-11-02T11:06:24.801Z,58.78
2022-11-02T11:08:53.577Z,58.54
2022-11-02T11:11:24.897Z,57.14
2022-11-02T11:16:55.070Z,55.18
2022-11-02T11:22:04.178Z,54.19
2022-11-02T11:24:32.139Z,54.54
2022-11-02T11:27:02.481Z,53.89
2022-11-02T11:29:33.584Z,53.36
2022-11-02T11:32:01.366Z,53.23
2022-11-02T11:34:33.652Z,54.10
2022-11-02T11:37:08.810Z,53.60
2022-11-02T11:39:35.991Z,53.26
2022-11-02T11:42:03.648Z,53.29
2022-11-02T11:44:30.591Z,52.70
2022-11-02T11:46:58.452Z,52.53
2022-11-02T11:49:41.526Z,52.37
2022-11-02T11:52:15.699Z,52.23
2022-11-02T11:54:52.271Z,52.12
2022-11-02T11:57:23.958Z,52.12
2022-11-02T11:59:52.985Z,51.67
2022-11-02T12:02:24.598Z,51.34
2022-11-02T12:04:51.224Z,50.85
2022-11-02T12:07:20.584Z,51.54
2022-11-02T12:09:51.948Z,51.96
2022-11-02T12:12:28.373Z,52.08
2022-11-02T12:14:55.005Z,51.73
2022-11-02T12:17:31.017Z,51.41
2022-11-02T12:20:12.417Z,51.49
2022-11-02T12:22:45.060Z,51.14
2022-11-02T12:25:17.098Z,50.85
2022-11-02T12:27:59.223Z,51.26
2022-11-02T12:30:34.633Z,51.36
2022-11-02T12:33:17.286Z,51.59
2022-11-02T12:35:43.805Z,51.63
2022-11-02T12:38:29.370Z,51.96
2022-11-02T12:40:58.949Z,51.96
2022-11-02T12:43:44.123Z,52.02
2022-11-02T12:46:13.480Z,51.65
2022-11-02T12:49:06.135Z,51.30
2022-11-02T12:51:38.498Z,50.95
2022-11-02T12:54:11.102Z,50.99
2022-11-02T12:56:49.290Z,51.23
2022-11-02T12:59:19.717Z,50.68
2022-11-02T13:01:48.053Z,51.37
2022-11-02T13:04:17.848Z,51.30
2022-11-02T13:06:46.393Z,51.69
2022-11-02T13:09:28.629Z,51.72
2022-11-02T13:12:15.454Z,51.65
2022-11-02T13:14:47.771Z,51.87
2022-11-02T13:17:22.554Z,52.19
2022-11-02T13:19:51.975Z,52.20
2022-11-02T13:22:20.216Z,52.27
2022-11-02T13:24:55.683Z,51.59
2022-11-02T13:27:40.981Z,51.48
2022-11-02T13:30:14.578Z,50.80
2022-11-02T13:32:44.606Z,50.91
2022-11-02T13:35:24.341Z,50.58
2022-11-02T13:37:57.700Z,50.62
2022-11-02T13:40:27.632Z,51.10
2022-11-02T13:43:02.314Z,50.67
2022-11-02T13:45:47.853Z,50.30
2022-11-02T13:48:17.547Z,50.68
2022-11-02T13:50:47.752Z,50.88
2022-11-02T13:53:21.050Z,50.67
2022-11-02T13:55:52.491Z,50.61
2022-11-02T13:58:24.968Z,50.69
2022-11-02T14:00:53.293Z,51.04
2022-11-02T14:03:26.733Z,50.52
2022-11-02T14:05:53.307Z,50.98
2022-11-02T14:08:26.773Z,51.07
2022-11-02T14:11:23.335Z,51.66
2022-11-02T14:13:56.277Z,51.56
2022-11-02T14:16:57.302Z,51.78
2022-11-02T14:19:25.264Z,52.07
2022-11-02T14:21:54.592Z,52.26
2022-11-02T14:24:39.700Z,52.70
2022-11-02T14:27:11.907Z,51.73
2022-11-02T14:29:50.299Z,51.58
2022-11-02T14:32:24.070Z,51.76
2022-11-02T14:34:57.663Z,51.59
2022-11-02T14:37:33.329Z,51.86
2022-11-02T14:40:22.930Z,51.71
2022-11-02T14:43:03.474Z,51.25
2022-11-02T14:45:36.354Z,50.99
2022-11-02T14:48:05.431Z,50.75
2022-11-02T14:50:32.661Z,50.70
2022-11-02T14:53:06.116Z,51.15
2022-11-02T14:55:34.276Z,50.91
2022-11-02T14:58:22.582Z,50.78
2022-11-02T15:00:49.310Z,51.06
2022-11-02T15:03:25.239Z,51.45
2022-11-02T15:06:18.280Z,51.86
2022-11-02T15:08:53.175Z,52.23
2022-11-02T15:11:38.346Z,52.67
2022-11-02T15:14:24.850Z,54.15
2022-11-02T15:16:52.883Z,55.02
2022-11-02T15:19:37.844Z,54.97
2022-11-02T15:22:23.209Z,55.87
2022-11-02T15:24:50.833Z,55.75
2022-11-02T15:27:19.089Z,55.93
2022-11-02T15:29:46.121Z,56.36
2022-11-02T15:32:22.849Z,56.72
2022-11-02T15:34:50.969Z,56.67
2022-11-02T15:37:19.485Z,57.08
2022-11-02T15:39:53.491Z,56.82
2022-11-02T15:42:20.036Z,56.90
2022-11-02T15:44:49.348Z,56.98
2022-11-02T15:47:18.757Z,57.35
2022-11-02T15:49:48.085Z,57.62
2022-11-02T15:52:25.082Z,57.75
2022-11-02T15:54:51.753Z,57.57
2022-11-02T15:57:37.226Z,57.86
2022-11-02T16:00:07.146Z,57.88
2022-11-02T16:02:42.269Z,58.04
2022-11-02T16:05:17.167Z,58.22
2022-11-02T16:08:05.377Z,57.97
2022-11-02T16:10:32.321Z,57.96
2022-11-02T16:12:59.827Z,57.60
2022-11-02T16:15:26.791Z,58.27
2022-11-02T16:17:53.661Z,58.68
2022-11-02T16:20:24.791Z,58.76
2022-11-02T16:23:02.298Z,58.97
2022-11-02T16:25:40.855Z,58.78
2022-11-02T16:28:10.500Z,58.96
2022-11-02T16:30:37.245Z,59.74
2022-11-02T16:33:04.188Z,60.07
2022-11-02T16:35:31.166Z,59.75
2022-11-02T16:37:57.885Z,60.39
2022-11-02T16:40:24.843Z,60.84
2022-11-02T16:42:52.928Z,60.85
2022-11-02T16:45:45.528Z,61.28
2022-11-02T16:48:17.360Z,62.06
2022-11-02T16:51:00.657Z,62.22
2022-11-02T16:53:31.152Z,62.49
2022-11-02T16:56:01.976Z,62.57
2022-11-02T16:58:28.769Z,62.87
2022-11-02T17:00:57.057Z,63.47
2022-11-02T17:03:26.231Z,63.67
2022-11-02T17:05:53.181Z,63.61
2022-11-02T17:08:40.051Z,63.87
2022-11-02T17:11:07.801Z,64.14
2022-11-02T17:13:43.371Z,64.07
2022-11-02T17:16:10.786Z,64.33
2022-11-02T17:18:37.754Z,64.52
2022-11-02T17:21:13.606Z,65.54
2022-11-02T17:23:41.650Z,66.61
2022-11-02T17:26:23.473Z,67.89
2022-11-02T17:28:51.489Z,67.12
2022-11-02T17:31:20.775Z,67.33
2022-11-02T17:33:47.785Z,67.34
2022-11-02T17:36:15.090Z,67.60
2022-11-02T17:38:41.795Z,67.33
2022-11-02T17:41:36.818Z,66.81
2022-11-02T17:44:03.778Z,66.24
2022-11-02T17:46:32.760Z,66.41
2022-11-02T17:48:59.353Z,66.30
2022-11-02T17:51:26.041Z,66.43
2022-11-02T17:53:52.621Z,66.83
2022-11-02T17:56:19.181Z,66.43
2022-11-02T17:58:45.952Z,66.56
2022-11-02T18:01:13.417Z,66.23
2022-11-02T18:03:40.134Z,66.09
2022-11-02T18:06:06.896Z,66.60
2022-11-02T18:08:53.660Z,66.43
2022-11-02T18:11:25.800Z,66.88
2022-11-02T18:13:52.978Z,66.91
2022-11-02T18:16:21.515Z,67.08
2022-11-02T18:18:48.243Z,67.47
2022-11-02T20:30:04.785Z,77.29
2022-11-02T20:32:31.321Z,77.50
2022-11-02T20:34:57.856Z,76.78
2022-11-02T20:37:24.399Z,76.64
2022-11-02T20:39:50.974Z,76.16
2022-11-02T20:42:17.519Z,76.44
2022-11-02T20:44:49.130Z,76.87
2022-11-02T20:47:15.645Z,77.58
2022-11-02T20:49:50.367Z,78.00
2022-11-02T20:52:18.822Z,78.46
2022-11-02T20:54:45.438Z,78.85
2022-11-02T20:57:12.037Z,79.23
2022-11-02T20:59:38.593Z,79.37
2022-11-02T21:02:05.784Z,79.35
2022-11-02T21:04:32.590Z,78.75
2022-11-02T21:06:59.159Z,78.92
2022-11-02T21:09:26.458Z,78.68
2022-11-02T21:12:11.740Z,78.98
2022-11-02T21:14:38.292Z,79.11
2022-11-02T21:17:06.405Z,79.51
2022-11-02T21:19:33.437Z,79.76
2022-11-02T21:22:00.651Z,80.03
2022-11-02T21:24:28.403Z,80.46
2022-11-02T21:26:55.413Z,80.59
2022-11-02T21:29:22.616Z,80.44
2022-11-02T21:31:49.484Z,80.59
2022-11-02T21:34:16.273Z,80.82
2022-11-02T21:36:43.647Z,80.78
2022-11-02T21:39:10.336Z,80.94
2022-11-02T21:41:38.872Z,81.34
2022-11-02T21:44:06.557Z,81.83
2022-11-02T21:46:33.191Z,82.25
2022-11-02T21:49:00.027Z,82.60
2022-11-02T21:51:26.786Z,82.87
2022-11-02T21:53:53.392Z,83.39
2022-11-02T21:56:21.888Z,83.81
2022-11-02T21:58:48.952Z,83.77
2022-11-02T22:01:49.647Z,83.76
2022-11-02T22:04:16.802Z,82.80
2022-11-02T22:06:43.529Z,82.73
2022-11-02T22:09:11.594Z,82.63
2022-11-02T22:11:38.238Z,82.87
2022-11-02T22:14:05.200Z,83.06
2022-11-02T22:16:35.783Z,83.14
2022-11-02T22:19:04.308Z,83.79
2022-11-02T22:21:32.370Z,84.02
2022-11-02T22:23:58.966Z,84.55
2022-11-02T22:26:26.976Z,84.88
2022-11-02T22:28:54.171Z,85.61
2022-11-02T22:31:22.498Z,86.50
2022-11-02T22:33:50.218Z,87.30
2022-11-02T22:36:18.376Z,87.09
2022-11-02T22:38:56.819Z,87.18
2022-11-02T22:41:27.724Z,87.83
2022-11-02T22:43:58.495Z,87.54
2022-11-02T22:46:25.887Z,87.75
2022-11-02T22:48:53.626Z,86.95
2022-11-02T22:51:21.122Z,84.54
2022-11-02T22:53:48.454Z,83.24
2022-11-02T22:56:15.981Z,82.73
2022-11-02T22:58:43.529Z,83.64
2022-11-02T23:01:14.485Z,83.49
2022-11-02T23:03:41.163Z,84.25
2022-11-02T23:06:08.283Z,84.65
2022-11-02T23:08:36.074Z,85.40
2022-11-02T23:11:21.547Z,85.91
2022-11-02T23:14:06.720Z,86.53
2022-11-02T23:16:37.293Z,86.71
2022-11-02T23:19:28.723Z,87.43
2022-11-02T23:22:14.554Z,87.49
2022-11-02T23:25:00.995Z,87.71
2022-11-02T23:27:28.223Z,87.40
2022-11-02T23:30:27.253Z,86.93
2022-11-02T23:32:53.837Z,86.63
2022-11-02T23:35:39.055Z,87.05
2022-11-02T23:38:06.239Z,86.79
2022-11-02T23:40:32.836Z,86.77
2022-11-02T23:42:59.414Z,86.18
2022-11-02T23:45:26.016Z,86.59
2022-11-02T23:48:00.530Z,87.35
2022-11-02T23:50:47.690Z,88.23
2022-11-02T23:53:34.021Z,88.90
2022-11-02T23:56:19.704Z,88.73
2022-11-02T23:58:46.632Z,89.63
